createdAt,value
2023-02-23T00:01:42.206Z,98.24
2023-02-23T00:04:09.473Z,98.44
2023-02-23T00:06:36.747Z,98.49
2023-02-23T00:09:15.313Z,98.70
2023-02-23T00:11:41.843Z,98.55
2023-02-23T00:14:09.455Z,98.47
2023-02-23T00:16:37.441Z,98.38
2023-02-23T00:19:07.768Z,98.47
2023-02-23T00:21:37.105Z,98.60
2023-02-23T00:24:09.500Z,98.60
2023-02-23T00:26:39.480Z,98.40
2023-02-23T00:29:25.706Z,98.25
2023-02-23T00:31:52.685Z,98.21
2023-02-23T00:34:23.690Z,98.54
2023-02-23T00:36:52.053Z,98.47
2023-02-23T00:39:21.891Z,98.56
2023-02-23T00:41:49.768Z,99.04
2023-02-23T00:44:17.474Z,99.51
2023-02-23T00:46:45.430Z,99.56
2023-02-23T00:49:13.965Z,99.37
2023-02-23T00:51:40.414Z,99.36
2023-02-23T00:54:08.717Z,99.34
2023-02-23T00:56:35.165Z,99.49
2023-02-23T00:59:01.719Z,99.70
2023-02-23T01:01:28.283Z,100.00
2023-02-23T01:03:54.879Z,100.00
2023-02-23T01:06:22.054Z,100.00
2023-02-23T01:08:50.163Z,100.00
2023-02-23T01:11:23.090Z,100.00
2023-02-23T01:13:52.531Z,100.00
2023-02-23T01:16:22.773Z,100.00
2023-02-23T01:18:49.249Z,100.00
2023-02-23T01:21:22.800Z,100.00
2023-02-23T01:23:51.369Z,100.00
2023-02-23T01:26:24.152Z,100.00
2023-02-23T01:28:56.513Z,100.00
2023-02-23T01:31:24.368Z,100.00
2023-02-23T01:33:55.877Z,100.00
2023-02-23T01:36:23.075Z,100.00
2023-02-23T01:38:49.748Z,100.00
2023-02-23T01:41:17.079Z,100.00
2023-02-23T01:44:01.599Z,100.00
2023-02-23T01:46:28.058Z,100.00
2023-02-23T01:48:56.435Z,100.00
2023-02-23T01:51:27.723Z,100.00
2023-02-23T01:54:02.391Z,99.70
2023-02-23T01:56:43.324Z,100.00
2023-02-23T01:59:12.619Z,99.86
2023-02-23T02:01:42.032Z,99.88
2023-02-23T02:04:16.347Z,99.78
2023-02-23T02:06:45.772Z,99.58
2023-02-23T02:09:19.896Z,99.11
2023-02-23T02:11:49.002Z,99.54
2023-02-23T02:14:19.107Z,99.67
2023-02-23T02:17:05.093Z,99.70
2023-02-23T02:20:01.303Z,99.81
2023-02-23T02:23:03.430Z,99.69
2023-02-23T02:25:49.823Z,99.56
2023-02-23T02:28:31.207Z,99.28
2023-02-23T02:31:30.159Z,98.98
2023-02-23T02:34:32.613Z,99.23
2023-02-23T02:37:12.390Z,99.25
2023-02-23T02:40:14.864Z,99.45
2023-02-23T02:42:55.172Z,100.00
2023-02-23T02:45:39.740Z,100.00
2023-02-23T02:48:32.136Z,100.00
2023-02-23T02:51:10.068Z,100.00
2023-02-23T02:53:46.284Z,100.00
2023-02-23T02:56:20.149Z,99.65
2023-02-23T02:58:50.076Z,99.90
2023-02-23T03:01:37.045Z,100.00
2023-02-23T03:04:43.440Z,100.00
2023-02-23T03:07:53.470Z,100.00
2023-02-23T03:10:38.400Z,100.00
2023-02-23T03:13:44.637Z,100.00
2023-02-23T03:16:41.934Z,100.00
2023-02-23T03:19:34.684Z,99.49
2023-02-23T03:22:40.418Z,99.86
2023-02-23T03:25:32.884Z,99.54
2023-02-23T03:28:36.376Z,100.00
2023-02-23T03:31:30.788Z,99.89
2023-02-23T03:34:39.639Z,99.58
2023-02-23T03:37:35.591Z,99.81
2023-02-23T03:40:31.102Z,99.43
2023-02-23T03:43:20.029Z,99.39
2023-02-23T03:46:07.922Z,99.19
2023-02-23T03:48:55.352Z,98.92
2023-02-23T03:51:43.253Z,98.98
2023-02-23T03:54:39.276Z,99.23
2023-02-23T03:57:29.210Z,99.30
2023-02-23T04:00:18.659Z,99.92
2023-02-23T04:03:08.458Z,99.77
2023-02-23T04:05:56.887Z,99.98
2023-02-23T04:08:49.041Z,99.82
2023-02-23T04:11:42.894Z,99.72
2023-02-23T04:14:17.951Z,100.00
2023-02-23T04:16:45.386Z,99.82
2023-02-23T04:19:12.456Z,100.00
2023-02-23T04:21:38.914Z,99.75
2023-02-23T04:24:05.462Z,100.00
2023-02-23T04:26:32.205Z,100.00
2023-02-23T04:28:58.568Z,100.00
2023-02-23T04:31:26.168Z,100.00
2023-02-23T04:33:52.811Z,100.00
2023-02-23T04:36:19.212Z,100.00
2023-02-23T04:38:45.574Z,100.00
2023-02-23T04:41:11.947Z,100.00
2023-02-23T04:43:38.396Z,100.00
2023-02-23T04:46:04.939Z,100.00
2023-02-23T04:48:31.344Z,99.49
2023-02-23T04:50:57.710Z,100.00
2023-02-23T04:53:24.590Z,99.88
2023-02-23T04:55:51.652Z,99.47
2023-02-23T04:58:18.415Z,99.50
2023-02-23T05:00:44.801Z,99.60
2023-02-23T05:03:12.152Z,99.88
2023-02-23T05:05:39.501Z,99.64
2023-02-23T05:08:06.380Z,99.99
2023-02-23T05:10:32.868Z,99.90
2023-02-23T05:12:59.631Z,100.00
2023-02-23T05:15:25.987Z,100.00
2023-02-23T05:17:52.385Z,100.00
2023-02-23T05:20:18.893Z,100.00
2023-02-23T05:22:45.644Z,100.00
2023-02-23T05:25:12.087Z,100.00
2023-02-23T05:27:39.408Z,100.00
2023-02-23T05:30:07.888Z,100.00
2023-02-23T05:32:34.636Z,100.00
2023-02-23T05:35:02.449Z,100.00
2023-02-23T05:37:29.017Z,100.00
2023-02-23T05:39:55.480Z,100.00
2023-02-23T05:42:21.868Z,100.00
2023-02-23T05:44:48.444Z,100.00
2023-02-23T05:47:14.818Z,100.00
2023-02-23T05:49:41.220Z,100.00
2023-02-23T05:52:08.394Z,100.00
2023-02-23T05:54:35.079Z,100.00
2023-02-23T05:57:01.931Z,100.00
2023-02-23T05:59:28.526Z,100.00
2023-02-23T06:01:54.914Z,100.00
2023-02-23T06:04:23.313Z,100.00
2023-02-23T06:06:49.882Z,100.00
2023-02-23T06:09:16.599Z,100.00
2023-02-23T06:11:42.972Z,100.00
2023-02-23T06:14:09.652Z,100.00
2023-02-23T06:16:36.234Z,100.00
2023-02-23T06:19:03.040Z,100.00
2023-02-23T06:21:29.468Z,100.00
2023-02-23T06:23:55.900Z,100.00
2023-02-23T06:26:22.261Z,100.00
2023-02-23T06:28:48.655Z,100.00
2023-02-23T06:31:15.091Z,100.00
2023-02-23T06:33:41.618Z,100.00
2023-02-23T06:36:08.388Z,100.00
2023-02-23T06:38:34.861Z,100.00
2023-02-23T06:41:06.955Z,100.00
2023-02-23T06:43:33.785Z,100.00
2023-02-23T06:46:00.145Z,100.00
2023-02-23T06:48:27.175Z,100.00
2023-02-23T06:50:53.663Z,100.00
2023-02-23T06:53:20.630Z,100.00
2023-02-23T06:55:47.017Z,100.00
2023-02-23T06:58:13.556Z,100.00
2023-02-23T07:00:42.952Z,100.00
2023-02-23T07:03:11.111Z,100.00
2023-02-23T07:05:37.477Z,100.00
2023-02-23T07:08:04.062Z,100.00
2023-02-23T07:10:30.467Z,100.00
2023-02-23T07:12:57.136Z,100.00
2023-02-23T07:15:24.198Z,100.00
2023-02-23T07:17:52.693Z,100.00
2023-02-23T07:20:19.715Z,100.00
2023-02-23T07:22:46.112Z,100.00
2023-02-23T07:25:12.587Z,100.00
2023-02-23T07:27:42.109Z,100.00
2023-02-23T07:30:09.357Z,100.00
2023-02-23T07:32:35.881Z,100.00
2023-02-23T07:35:03.509Z,100.00
2023-02-23T07:37:29.942Z,100.00
2023-02-23T07:39:56.325Z,100.00
2023-02-23T07:42:22.709Z,100.00
2023-02-23T07:44:49.110Z,100.00
2023-02-23T07:47:15.573Z,100.00
2023-02-23T07:49:42.945Z,100.00
2023-02-23T07:52:09.390Z,100.00
2023-02-23T07:54:35.823Z,100.00
2023-02-23T07:57:02.244Z,100.00
2023-02-23T07:59:29.054Z,100.00
2023-02-23T08:01:55.489Z,100.00
2023-02-23T08:04:21.926Z,100.00
2023-02-23T08:06:48.325Z,100.00
2023-02-23T08:09:14.762Z,100.00
2023-02-23T08:11:41.184Z,100.00
2023-02-23T08:14:07.559Z,100.00
2023-02-23T08:16:34.395Z,100.00
2023-02-23T08:19:01.501Z,100.00
2023-02-23T08:21:29.707Z,100.00
2023-02-23T08:23:57.357Z,100.00
2023-02-23T08:26:25.314Z,100.00
2023-02-23T08:28:53.326Z,100.00
2023-02-23T08:31:24.396Z,100.00
2023-02-23T08:33:51.512Z,100.00
2023-02-23T08:36:18.729Z,100.00
2023-02-23T08:38:45.135Z,100.00
2023-02-23T08:41:11.516Z,100.00
2023-02-23T08:43:39.203Z,100.00
2023-02-23T08:46:06.649Z,100.00
2023-02-23T08:48:33.610Z,100.00
2023-02-23T08:51:00.505Z,100.00
2023-02-23T08:53:29.644Z,100.00
2023-02-23T08:55:57.794Z,100.00
2023-02-23T08:58:24.321Z,100.00
2023-02-23T09:00:50.743Z,100.00
2023-02-23T09:03:17.194Z,100.00
2023-02-23T09:05:44.297Z,100.00
2023-02-23T09:08:12.457Z,100.00
2023-02-23T09:10:39.235Z,100.00
2023-02-23T09:13:05.799Z,100.00
2023-02-23T09:15:32.223Z,100.00
2023-02-23T09:18:02.463Z,100.00
2023-02-23T09:20:29.164Z,100.00
2023-02-23T09:22:55.601Z,100.00
2023-02-23T09:25:23.064Z,100.00
2023-02-23T09:27:56.325Z,100.00
2023-02-23T09:30:23.143Z,100.00
2023-02-23T09:32:51.531Z,100.00
2023-02-23T09:35:19.610Z,100.00
2023-02-23T09:37:51.454Z,100.00
2023-02-23T09:40:21.972Z,100.00
2023-02-23T09:43:03.458Z,100.00
2023-02-23T09:45:38.568Z,100.00
2023-02-23T09:48:04.858Z,100.00
2023-02-23T09:50:34.915Z,100.00
2023-02-23T09:53:07.636Z,100.00
2023-02-23T09:55:34.373Z,100.00
2023-02-23T09:58:08.508Z,100.00
2023-02-23T10:00:44.796Z,100.00
2023-02-23T10:03:33.600Z,100.00
2023-02-23T10:06:05.419Z,100.00
2023-02-23T10:08:41.020Z,100.00
2023-02-23T10:11:22.808Z,100.00
2023-02-23T10:14:12.538Z,100.00
2023-02-23T10:16:59.308Z,100.00
2023-02-23T10:19:38.550Z,100.00
2023-02-23T10:22:09.206Z,100.00
2023-02-23T10:25:00.593Z,100.00
2023-02-23T10:27:37.562Z,100.00
2023-02-23T10:30:13.021Z,100.00
2023-02-23T10:32:45.892Z,100.00
2023-02-23T10:35:16.039Z,100.00
2023-02-23T10:37:42.634Z,100.00
2023-02-23T10:40:18.491Z,100.00
2023-02-23T10:42:44.945Z,100.00
2023-02-23T10:45:23.283Z,100.00
2023-02-23T10:48:05.421Z,100.00
2023-02-23T10:50:33.729Z,100.00
2023-02-23T10:53:10.029Z,100.00
2023-02-23T10:55:36.568Z,100.00
2023-02-23T10:58:03.297Z,100.00
2023-02-23T11:00:33.242Z,100.00
2023-02-23T11:03:02.849Z,100.00
2023-02-23T11:05:55.453Z,100.00
2023-02-23T11:08:26.251Z,100.00
2023-02-23T11:11:02.761Z,100.00
2023-02-23T11:13:41.691Z,100.00
2023-02-23T11:16:11.462Z,100.00
2023-02-23T11:18:39.908Z,100.00
2023-02-23T11:21:13.450Z,100.00
2023-02-23T11:23:41.379Z,100.00
2023-02-23T11:26:23.170Z,100.00
2023-02-23T11:28:53.886Z,100.00
2023-02-23T11:31:23.834Z,100.00
2023-02-23T11:33:53.351Z,100.00
2023-02-23T11:36:22.831Z,100.00
2023-02-23T11:39:03.732Z,100.00
2023-02-23T11:41:32.797Z,100.00
2023-02-23T11:44:04.290Z,100.00
2023-02-23T11:46:36.664Z,100.00
2023-02-23T11:49:07.326Z,100.00
2023-02-23T11:51:36.896Z,100.00
2023-02-23T11:54:05.746Z,99.87
2023-02-23T11:56:34.264Z,100.00
2023-02-23T11:59:08.598Z,99.37
2023-02-23T12:01:44.600Z,99.32
2023-02-23T12:04:23.942Z,98.42
2023-02-23T12:06:51.655Z,98.55
2023-02-23T12:09:27.476Z,98.75
2023-02-23T12:12:04.565Z,98.82
2023-02-23T12:14:37.678Z,98.84
2023-02-23T12:17:16.003Z,98.71
2023-02-23T12:19:51.262Z,98.14
2023-02-23T12:22:22.332Z,97.95
2023-02-23T12:25:02.250Z,98.74
2023-02-23T12:27:42.075Z,98.57
2023-02-23T12:30:11.767Z,98.06
2023-02-23T12:33:02.173Z,98.19
2023-02-23T12:35:44.662Z,98.77
2023-02-23T12:38:33.197Z,98.22
2023-02-23T12:41:12.378Z,97.18
2023-02-23T12:43:55.500Z,95.67
2023-02-23T12:46:26.518Z,96.30
2023-02-23T12:49:17.101Z,95.52
2023-02-23T12:51:51.645Z,95.71
2023-02-23T12:54:18.594Z,96.35
2023-02-23T12:56:57.651Z,96.00
2023-02-23T12:59:25.302Z,94.69
2023-02-23T13:02:18.584Z,94.89
2023-02-23T13:04:51.067Z,95.02
2023-02-23T13:07:22.095Z,95.58
2023-02-23T13:10:31.817Z,95.77
2023-02-23T13:13:12.769Z,95.74
2023-02-23T13:15:55.572Z,96.48
2023-02-23T13:18:32.179Z,95.23
2023-02-23T13:21:09.633Z,94.85
2023-02-23T13:23:42.988Z,94.71
2023-02-23T13:26:37.305Z,94.43
2023-02-23T13:29:17.496Z,94.85
2023-02-23T13:31:44.830Z,94.78
2023-02-23T13:34:17.528Z,94.86
2023-02-23T13:36:45.852Z,95.17
2023-02-23T13:39:37.171Z,94.83
2023-02-23T13:42:41.589Z,94.59
2023-02-23T13:45:46.026Z,94.08
2023-02-23T13:48:56.044Z,93.96
2023-02-23T13:51:47.429Z,94.61
2023-02-23T13:54:14.423Z,94.18
2023-02-23T13:56:48.302Z,93.97
2023-02-23T13:59:29.396Z,94.06
2023-02-23T14:01:56.500Z,95.41
2023-02-23T14:04:29.458Z,95.34
2023-02-23T14:07:02.218Z,95.46
2023-02-23T14:09:32.669Z,95.18
2023-02-23T14:12:11.192Z,94.39
2023-02-23T14:14:42.864Z,94.50
2023-02-23T14:17:09.184Z,94.18
2023-02-23T14:19:40.904Z,93.81
2023-02-23T14:22:17.073Z,94.05
2023-02-23T14:24:43.515Z,94.14
2023-02-23T14:27:34.112Z,93.44
2023-02-23T14:30:20.256Z,93.44
2023-02-23T14:32:49.489Z,93.49
2023-02-23T14:35:34.069Z,93.32
2023-02-23T14:38:04.797Z,93.52
2023-02-23T14:40:34.855Z,92.61
2023-02-23T14:43:03.328Z,92.87
2023-02-23T14:45:32.928Z,92.45
2023-02-23T14:48:05.209Z,91.58
2023-02-23T14:50:34.967Z,92.18
2023-02-23T14:53:04.328Z,92.44
2023-02-23T14:55:35.259Z,91.45
2023-02-23T14:58:03.463Z,91.96
2023-02-23T15:00:33.453Z,91.23
2023-02-23T15:03:01.075Z,91.25
2023-02-23T15:05:37.033Z,90.92
2023-02-23T15:08:07.924Z,91.10
2023-02-23T15:10:40.834Z,90.46
2023-02-23T15:13:18.263Z,90.08
2023-02-23T15:15:45.919Z,91.55
2023-02-23T15:19:09.189Z,91.09
2023-02-23T15:21:36.704Z,92.06
2023-02-23T15:24:16.499Z,91.86
2023-02-23T15:26:43.848Z,92.16
2023-02-23T15:29:10.283Z,92.11
2023-02-23T15:31:40.784Z,92.02
2023-02-23T15:34:11.196Z,92.04
2023-02-23T15:36:41.614Z,92.12
2023-02-23T15:39:14.693Z,92.13
2023-02-23T15:41:43.709Z,92.71
2023-02-23T15:44:19.064Z,92.53
2023-02-23T15:46:56.664Z,92.68
2023-02-23T15:49:27.612Z,92.41
2023-02-23T15:52:00.792Z,92.83
2023-02-23T15:54:31.935Z,93.23
2023-02-23T15:57:07.108Z,92.76
2023-02-23T15:59:37.892Z,93.08
2023-02-23T16:02:16.664Z,93.13
2023-02-23T16:04:47.040Z,93.38
2023-02-23T16:07:18.480Z,92.79
2023-02-23T16:10:05.570Z,93.03
2023-02-23T16:12:36.524Z,93.48
2023-02-23T16:15:06.517Z,93.45
2023-02-23T16:17:42.038Z,93.71
2023-02-23T16:20:14.747Z,94.05
2023-02-23T16:22:45.956Z,93.98
2023-02-23T16:25:16.194Z,93.84
2023-02-23T16:27:44.646Z,94.18
2023-02-23T16:30:34.206Z,94.54
2023-02-23T16:33:05.349Z,94.49
2023-02-23T16:35:39.789Z,94.70
2023-02-23T16:38:13.316Z,94.70
2023-02-23T16:40:43.907Z,94.67
2023-02-23T16:43:10.483Z,94.96
2023-02-23T16:45:40.278Z,94.99
2023-02-23T16:48:13.318Z,95.51
2023-02-23T16:50:40.914Z,95.75
2023-02-23T16:53:10.842Z,96.37
2023-02-23T16:55:40.310Z,96.23
2023-02-23T16:58:10.984Z,97.74
2023-02-23T17:00:37.539Z,100.00
2023-02-23T17:03:06.653Z,100.00
2023-02-23T17:05:33.359Z,100.00
2023-02-23T17:07:59.772Z,100.00
2023-02-23T17:10:32.654Z,100.00
2023-02-23T17:13:05.138Z,100.00
2023-02-23T17:15:40.779Z,100.00
2023-02-23T17:18:07.507Z,100.00
2023-02-23T17:20:34.048Z,100.00
2023-02-23T17:23:02.519Z,100.00
2023-02-23T17:25:29.690Z,100.00
2023-02-23T17:27:57.751Z,100.00
2023-02-23T17:30:25.373Z,100.00
2023-02-23T17:32:54.217Z,100.00
2023-02-23T17:35:21.525Z,100.00
2023-02-23T17:37:48.437Z,100.00
2023-02-23T17:40:18.669Z,100.00
2023-02-23T17:42:45.478Z,100.00
2023-02-23T17:45:12.075Z,100.00
2023-02-23T17:47:40.512Z,100.00
2023-02-23T17:50:07.935Z,100.00
2023-02-23T17:52:34.373Z,100.00
2023-02-23T17:55:00.852Z,100.00
2023-02-23T17:57:29.303Z,100.00
2023-02-23T17:59:56.108Z,100.00
2023-02-23T18:02:23.094Z,100.00
2023-02-23T18:04:50.549Z,100.00
2023-02-23T18:07:18.445Z,100.00
2023-02-23T18:09:45.058Z,100.00
2023-02-23T18:12:11.538Z,100.00
2023-02-23T18:14:38.100Z,100.00
2023-02-23T18:17:05.070Z,100.00
2023-02-23T18:19:32.164Z,100.00
2023-02-23T18:21:58.585Z,100.00
2023-02-23T18:24:27.281Z,100.00
2023-02-23T18:27:00.498Z,100.00
2023-02-23T18:29:28.818Z,100.00
2023-02-23T18:31:57.564Z,100.00
2023-02-23T18:34:25.717Z,100.00
2023-02-23T18:36:52.123Z,100.00
2023-02-23T18:39:18.534Z,100.00
2023-02-23T18:41:45.799Z,100.00
2023-02-23T18:44:14.785Z,100.00
2023-02-23T18:46:42.461Z,100.00
2023-02-23T18:49:17.748Z,100.00
2023-02-23T18:51:44.657Z,100.00
2023-02-23T18:54:16.753Z,100.00
2023-02-23T18:56:47.482Z,100.00
2023-02-23T18:59:15.033Z,100.00
2023-02-23T19:01:45.328Z,100.00
2023-02-23T19:04:13.019Z,100.00
2023-02-23T19:06:42.519Z,100.00
2023-02-23T19:09:09.669Z,100.00
2023-02-23T19:11:37.506Z,100.00
2023-02-23T19:14:08.664Z,100.00
2023-02-23T19:16:36.192Z,100.00
2023-02-23T19:19:06.943Z,100.00
2023-02-23T19:21:33.773Z,100.00
2023-02-23T19:24:02.485Z,100.00
2023-02-23T19:26:30.255Z,100.00
2023-02-23T19:28:57.736Z,100.00
2023-02-23T19:31:26.116Z,100.00
2023-02-23T19:33:57.574Z,100.00
2023-02-23T19:36:30.546Z,100.00
2023-02-23T19:39:06.136Z,100.00
2023-02-23T19:41:33.896Z,100.00
2023-02-23T19:44:00.719Z,100.00
2023-02-23T19:46:27.656Z,100.00
2023-02-23T19:48:55.740Z,100.00
2023-02-23T19:51:23.557Z,100.00
2023-02-23T19:53:53.499Z,100.00
2023-02-23T19:56:20.381Z,100.00
2023-02-23T19:58:48.281Z,100.00
2023-02-23T20:01:17.285Z,100.00
2023-02-23T20:03:45.168Z,100.00
2023-02-23T20:06:13.517Z,100.00
2023-02-23T20:08:41.286Z,100.00
2023-02-23T20:11:08.139Z,100.00
2023-02-23T20:13:35.208Z,100.00
2023-02-23T20:16:09.012Z,100.00
2023-02-23T20:18:39.053Z,100.00
2023-02-23T20:21:18.111Z,100.00
2023-02-23T20:23:46.686Z,100.00
2023-02-23T20:26:21.868Z,100.00
2023-02-23T20:28:50.015Z,100.00
2023-02-23T20:31:32.153Z,100.00
2023-02-23T20:34:03.787Z,100.00
2023-02-23T20:36:30.421Z,100.00
2023-02-23T20:38:57.027Z,100.00
2023-02-23T20:41:24.001Z,100.00
2023-02-23T20:43:52.049Z,100.00
2023-02-23T20:46:19.781Z,100.00
2023-02-23T20:48:49.012Z,100.00
2023-02-23T20:51:19.081Z,100.00
2023-02-23T20:53:48.119Z,100.00
2023-02-23T20:56:17.345Z,100.00
2023-02-23T20:58:44.911Z,100.00
2023-02-23T21:01:22.363Z,100.00
2023-02-23T21:03:51.568Z,100.00
2023-02-23T21:06:20.036Z,100.00
2023-02-23T21:08:48.991Z,100.00
2023-02-23T21:11:18.007Z,100.00
2023-02-23T21:13:44.673Z,100.00
2023-02-23T21:16:16.927Z,100.00
2023-02-23T21:18:43.595Z,100.00
2023-02-23T21:21:10.918Z,100.00
2023-02-23T21:23:44.831Z,100.00
2023-02-23T21:26:14.632Z,100.00
2023-02-23T21:28:46.607Z,100.00
2023-02-23T21:31:14.400Z,100.00
2023-02-23T21:33:42.794Z,100.00
2023-02-23T21:36:10.794Z,100.00
2023-02-23T21:38:38.400Z,100.00
2023-02-23T21:41:05.170Z,100.00
2023-02-23T21:43:34.737Z,100.00
2023-02-23T21:46:09.434Z,100.00
2023-02-23T21:48:36.029Z,100.00
2023-02-23T21:51:08.053Z,100.00
2023-02-23T21:53:34.791Z,100.00
2023-02-23T21:56:11.640Z,100.00
2023-02-23T21:58:50.141Z,100.00
2023-02-23T22:01:31.243Z,100.00
2023-02-23T22:03:57.896Z,100.00
2023-02-23T22:06:30.142Z,100.00
2023-02-23T22:08:57.370Z,100.00
2023-02-23T22:11:26.603Z,100.00
2023-02-23T22:14:01.580Z,100.00
2023-02-23T22:16:36.062Z,100.00
2023-02-23T22:19:04.123Z,100.00
2023-02-23T22:21:32.456Z,100.00
2023-02-23T22:23:59.029Z,100.00
2023-02-23T22:26:25.633Z,100.00
2023-02-23T22:28:52.037Z,100.00
2023-02-23T22:31:18.772Z,100.00
2023-02-23T22:33:45.389Z,100.00
2023-02-23T22:36:14.229Z,100.00
2023-02-23T22:38:41.896Z,100.00
2023-02-23T22:41:12.958Z,100.00
2023-02-23T22:43:41.924Z,100.00
2023-02-23T22:46:09.718Z,100.00
2023-02-23T22:48:36.684Z,100.00
2023-02-23T22:51:03.401Z,100.00
2023-02-23T22:53:29.880Z,100.00
2023-02-23T22:55:57.293Z,100.00
2023-02-23T22:58:26.253Z,100.00
2023-02-23T23:01:04.040Z,100.00
2023-02-23T23:03:38.086Z,100.00
2023-02-23T23:06:08.043Z,100.00
2023-02-23T23:08:42.357Z,100.00
2023-02-23T23:11:15.125Z,100.00
2023-02-23T23:13:44.564Z,100.00
2023-02-23T23:16:30.554Z,100.00
2023-02-23T23:19:04.094Z,100.00
2023-02-23T23:21:33.220Z,100.00
2023-02-23T23:24:01.648Z,100.00
2023-02-23T23:26:29.377Z,100.00
2023-02-23T23:28:57.919Z,100.00
2023-02-23T23:31:28.264Z,100.00
2023-02-23T23:33:57.962Z,100.00
2023-02-23T23:36:28.765Z,100.00
2023-02-23T23:38:56.501Z,100.00
2023-02-23T23:41:24.997Z,100.00
2023-02-23T23:43:59.386Z,100.00
2023-02-23T23:46:28.388Z,100.00
2023-02-23T23:48:57.350Z,100.00
2023-02-23T23:51:30.543Z,100.00
2023-02-23T23:54:01.746Z,100.00
2023-02-23T23:56:34.636Z,100.00
2023-02-23T23:59:02.138Z,100.00
